Dades meteomassalio
Diari Summary for Febrer 11, 2017 Units:  Metric    English   Both
« Previous Day
Next Day »
Diari Semanal Mensual Anual Personalitzat
  Maxima: Minima: Mijana:
Temperatura: -17.8 °C -17.4 °C -14.8 °C
Rosada: -17.8 °C -18.2 °C -15.6 °C
Humitat: Humidity % 84 % 91 %
Velocitat del vent: 0 km/h 0 km/h 1 km/h
Racha vent: 0 km/h - -
Vent:- - ESE
Pressio: 0 hPa 34256.2 hPa -
Pluja: 38.1 mm    
Historical Graphs
 
 
Tabular Data for Febrer 11, 2017
Time Temperature Dew Point Pressure Wind Wind Speed Wind Gust Humidity Rainfall Rate (Hourly) solar Conditions
-17.8 °C -17.8 °C 0 hPa Calm     Humidity % 0 mm SolarRadiationWatts/m^2 W/m2 Conditions
00:01 -17.1 °C -17.8 °C 34476.3 hPa Calm     90 % 0 mm 0.0 W/m2 CLR
00:06 -17.1 °C -17.8 °C 34476.3 hPa Calm     91 % 0 mm 0.0 W/m2 CLR
00:12 -17.1 °C -17.8 °C 34476.3 hPa Calm     91 % 0 mm 0.0 W/m2 CLR
00:17 -17.1 °C -17.9 °C 34476.3 hPa Calm     90 % 0 mm 0.0 W/m2 CLR
00:22 -17.2 °C -18 °C 34476.3 hPa Calm     90 % 0 mm 0.0 W/m2 CLR
00:27 -17.2 °C -17.9 °C 34476.3 hPa Calm     91 % 0 mm 0.0 W/m2 CLR
00:32 -17.3 °C -17.9 °C 34476.3 hPa Calm     91 % 0 mm 0.0 W/m2 CLR
00:37 -17.3 °C -18 °C 34476.3 hPa Calm     91 % 0 mm 0.0 W/m2 CLR
00:42 -17.3 °C -18 °C 34476.3 hPa Calm     91 % 0 mm 0.0 W/m2 CLR
00:47 -17.3 °C -18 °C 34476.3 hPa Calm     91 % 0 mm 0.0 W/m2 CLR
00:52 -17.3 °C -18.1 °C 34476.3 hPa Calm     91 % 0 mm 0.0 W/m2 CLR
00:57 -17.4 °C -18.1 °C 34476.3 hPa Calm     91 % 0 mm 0.0 W/m2 CLR
01:02 -17.3 °C -18 °C 34476.3 hPa Calm     92 % 0 mm 0.0 W/m2 CLR
01:07 -17.4 °C -18.1 °C 34476.3 hPa Calm     91 % 0 mm 0.0 W/m2 CLR
01:12 -17.4 °C -18.2 °C 34476.3 hPa Calm     91 % 0 mm 0.0 W/m2 CLR
01:17 -17.4 °C -18.1 °C 34476.3 hPa Calm     92 % 0 mm 0.0 W/m2 CLR
01:22 -17.3 °C -18 °C 34476.3 hPa Calm     92 % 0 mm 0.0 W/m2 CLR
01:27 -17.3 °C -17.9 °C 34476.3 hPa Calm     92 % 0 mm 0.0 W/m2 CLR
01:32 -17.3 °C -17.9 °C 34476.3 hPa Calm     92 % 0 mm 0.0 W/m2 CLR
01:37 -17.2 °C -17.9 °C 34462.7 hPa Calm     92 % 0 mm 0.0 W/m2 CLR
01:42 -17.2 °C -17.8 °C 34462.7 hPa Calm     92 % 0 mm 0.0 W/m2 CLR
01:47 -17.1 °C -17.7 °C 34462.7 hPa Calm     92 % 0 mm 0.0 W/m2 CLR
01:52 -17.1 °C -17.7 °C 34462.7 hPa Calm     92 % 0 mm 0.0 W/m2 CLR
01:57 -17 °C -17.7 °C 34462.7 hPa Calm     92 % 0 mm 0.0 W/m2 CLR
02:02 -17 °C -17.6 °C 34462.7 hPa Calm     92 % 0 mm 0.0 W/m2 CLR
02:07 -16.9 °C -17.6 °C 34462.7 hPa Calm     92 % 0 mm 0.0 W/m2 CLR
02:12 -16.9 °C -17.6 °C 34462.7 hPa Calm     92 % 0 mm 0.0 W/m2 CLR
02:17 -16.9 °C -17.6 °C 34462.7 hPa Calm     92 % 0 mm 0.0 W/m2 CLR
02:22 -16.8 °C -17.4 °C 34462.7 hPa Calm     92 % 0 mm 0.0 W/m2 CLR
02:27 -16.8 °C -17.4 °C 34476.3 hPa Calm     92 % 0 mm 0.0 W/m2 CLR
02:32 -16.7 °C -17.4 °C 34476.3 hPa Calm     92 % 0 mm 0.0 W/m2 CLR
02:37 -16.7 °C -17.3 °C 34476.3 hPa Calm     92 % 0 mm 0.0 W/m2 CLR
02:42 -16.6 °C -17.3 °C 34476.3 hPa Calm     92 % 0 mm 0.0 W/m2 CLR
02:47 -16.6 °C -17.2 °C 34462.7 hPa Calm     92 % 0 mm 0.0 W/m2 CLR
02:52 -16.5 °C -17.2 °C 34462.7 hPa Calm     92 % 0 mm 0.0 W/m2 CLR
02:57 -16.4 °C -17.1 °C 34462.7 hPa Calm     92 % 0 mm 0.0 W/m2 CLR
03:02 -16.4 °C -17.1 °C 34462.7 hPa Calm     92 % 0 mm 0.0 W/m2 CLR
03:07 -16.4 °C -17.1 °C 34462.7 hPa Calm     92 % 0 mm 0.0 W/m2 CLR
03:12 -16.3 °C -17 °C 34462.7 hPa Calm     92 % 0 mm 0.0 W/m2 CLR
03:17 -16.3 °C -17 °C 34462.7 hPa Calm     92 % 0 mm 0.0 W/m2 CLR
03:22 -16.3 °C -16.9 °C 34462.7 hPa Calm     92 % 0 mm 0.0 W/m2 CLR
03:27 -16.3 °C -16.9 °C 34462.7 hPa Calm     92 % 0 mm 0.0 W/m2 CLR
03:32 -16.3 °C -16.9 °C 34462.7 hPa Calm     92 % 0 mm 0.0 W/m2 CLR
03:37 -16.3 °C -17 °C 34462.7 hPa Calm     91 % 0 mm 0.0 W/m2 CLR
03:42 -16.3 °C -16.9 °C 34462.7 hPa Calm     92 % 0 mm 0.0 W/m2 CLR
03:47 -16.3 °C -17 °C 34462.7 hPa Calm     92 % 0 mm 0.0 W/m2 CLR
03:52 -16.3 °C -16.9 °C 34462.7 hPa Calm     92 % 0 mm 0.0 W/m2 CLR
03:57 -16.3 °C -16.9 °C 34452.6 hPa Calm     92 % 0 mm 0.0 W/m2 CLR
04:02 -16.2 °C -16.9 °C 34452.6 hPa Calm     92 % 0 mm 0.0 W/m2 CLR
04:07 -16.2 °C -16.8 °C 34452.6 hPa Calm     92 % 0 mm 0.0 W/m2 CLR
04:12 -16 °C -16.6 °C 34452.6 hPa Calm     93 % 0 mm 0.0 W/m2 CLR
04:17 -16 °C -16.6 °C 34452.6 hPa Calm     92 % 0 mm 0.0 W/m2 CLR
04:22 -15.9 °C -16.6 °C 34452.6 hPa Calm     92 % 0 mm 0.0 W/m2 CLR
04:27 -15.9 °C -16.6 °C 34452.6 hPa Calm     92 % 0 mm 0.0 W/m2 CLR
04:32 -15.7 °C -16.3 °C 34452.6 hPa Calm     93 % 0 mm 0.0 W/m2 CLR
04:37 -15.8 °C -16.4 °C 34452.6 hPa Calm     92 % 0 mm 0.0 W/m2 CLR
04:42 -15.9 °C -16.5 °C 34452.6 hPa Calm     92 % 0 mm 0.0 W/m2 CLR
04:47 -15.8 °C -16.3 °C 34452.6 hPa Calm     93 % 0 mm 0.0 W/m2 CLR
04:52 -15.7 °C -16.4 °C 34442.4 hPa Calm     92 % 0 mm 0.0 W/m2 CLR
04:57 -15.8 °C -16.4 °C 34442.4 hPa Calm     92 % 0 mm 0.0 W/m2 CLR
05:02 -15.7 °C -16.3 °C 34452.6 hPa Calm     93 % 0 mm 0.0 W/m2 CLR
05:07 -15.7 °C -16.3 °C 34452.6 hPa Calm     92 % 0 mm 0.0 W/m2 CLR
05:12 -15.8 °C -16.4 °C 34452.6 hPa Calm     92 % 0 mm 0.0 W/m2 CLR
05:17 -15.8 °C -16.4 °C 34452.6 hPa Calm     92 % 0 mm 0.0 W/m2 CLR
05:22 -15.7 °C -16.3 °C 34452.6 hPa Calm     93 % 0 mm 0.0 W/m2 CLR
05:27 -15.7 °C -16.3 °C 34452.6 hPa Calm     93 % 0 mm 0.0 W/m2 CLR
05:32 -15.7 °C -16.2 °C 34452.6 hPa Calm     93 % 0 mm 0.0 W/m2 CLR
05:37 -15.8 °C -16.5 °C 34452.6 hPa Calm     91 % 0 mm 0.0 W/m2 CLR
05:42 -15.9 °C -16.5 °C 34452.6 hPa Calm     92 % 0 mm 0.0 W/m2 CLR
05:47 -15.9 °C -16.6 °C 34452.6 hPa Calm     92 % 0 mm 0.0 W/m2 CLR
05:52 -16 °C -16.6 °C 34452.6 hPa Calm     92 % 0 mm 0.0 W/m2 CLR
05:57 -15.9 °C -16.6 °C 34452.6 hPa Calm     92 % 0 mm 0.0 W/m2 CLR
06:02 -15.9 °C -16.6 °C 34452.6 hPa Calm     92 % 0 mm 0.0 W/m2 CLR
06:07 -15.9 °C -16.4 °C 34452.6 hPa Calm     93 % 0 mm 0.0 W/m2 CLR
06:12 -15.8 °C -16.3 °C 34442.4 hPa Calm     93 % 0 mm 0.0 W/m2 CLR
06:17 -15.8 °C -16.3 °C 34452.6 hPa Calm     93 % 0 mm 0.0 W/m2 CLR
06:22 -15.8 °C -16.3 °C 34442.4 hPa Calm     93 % 0 mm 0.0 W/m2 CLR
06:27 -15.9 °C -16.5 °C 34442.4 hPa Calm     92 % 0 mm 0.0 W/m2 CLR
06:32 -15.9 °C -16.5 °C 34442.4 hPa Calm     92 % 0 mm 0.0 W/m2 CLR
06:37 -15.8 °C -16.3 °C 34442.4 hPa Calm     93 % 0 mm 0.0 W/m2 CLR
06:42 -15.7 °C -16.3 °C 34442.4 hPa Calm     93 % 0 mm 0.0 W/m2 CLR
06:47 -15.8 °C -16.3 °C 34442.4 hPa Calm     93 % 0 mm 0.0 W/m2 CLR
06:52 -15.9 °C -16.6 °C 34452.6 hPa Calm     92 % 0 mm 0.0 W/m2 CLR
06:57 -16 °C -16.7 °C 34442.4 hPa Calm     92 % 0 mm 0.0 W/m2 CLR
07:03 -16 °C -16.6 °C 34442.4 hPa Calm     93 % 0 mm 0.0 W/m2 CLR
07:08 -16 °C -16.6 °C 34442.4 hPa Calm     93 % 0 mm 0.0 W/m2 CLR
07:13 -16 °C -16.6 °C 34452.6 hPa Calm     93 % 0 mm 0.0 W/m2 CLR
07:18 -16 °C -16.6 °C 34452.6 hPa Calm     93 % 0 mm 0.0 W/m2 CLR
07:23 -16.1 °C -16.7 °C 34452.6 hPa Calm     92 % 0 mm 0.0 W/m2 CLR
07:28 -16.2 °C -16.8 °C 34452.6 hPa Calm     92 % 0 mm 0.0 W/m2 CLR
07:33 -16.2 °C -16.8 °C 34452.6 hPa Calm     92 % 0 mm 0.0 W/m2 CLR
07:38 -16.2 °C -16.8 °C 34452.6 hPa Calm     93 % 0 mm 0.0 W/m2 CLR
07:43 -16.2 °C -16.9 °C 34452.6 hPa Calm     92 % 0 mm 0.0 W/m2 CLR
07:48 -16.2 °C -16.8 °C 34462.7 hPa Calm     93 % 0 mm 0.0 W/m2 CLR
07:53 -16.2 °C -16.8 °C 34462.7 hPa Calm     93 % 0 mm 0.0 W/m2 OVC
07:58 -16.2 °C -16.7 °C 34462.7 hPa Calm     93 % 0 mm 0.0 W/m2 OVC
08:03 -16.2 °C -16.7 °C 34462.7 hPa Calm     93 % 0 mm 0.0 W/m2 OVC
08:08 -16.2 °C -16.7 °C 34462.7 hPa Calm     93 % 0 mm 0.0 W/m2 OVC
08:13 -16.1 °C -16.7 °C 34462.7 hPa Calm     93 % 0 mm 5.0 W/m2 OVC
08:18 -16.1 °C -16.6 °C 34462.7 hPa Calm     93 % 0 mm 7.0 W/m2 BKN
08:23 -16.1 °C -16.6 °C 34462.7 hPa Calm     93 % 0 mm 7.0 W/m2 BKN
08:28 -16 °C -16.6 °C 34462.7 hPa Calm     93 % 0 mm 5.0 W/m2 OVC
08:33 -16 °C -16.6 °C 34462.7 hPa Calm     93 % 0 mm 7.0 W/m2 OVC
08:38 -15.9 °C -16.5 °C 34462.7 hPa Calm     93 % 0 mm 9.0 W/m2 BKN
08:43 -15.9 °C -16.4 °C 34462.7 hPa Calm     93 % 0 mm 12.0 W/m2 BKN
08:48 -15.9 °C -16.4 °C 34462.7 hPa Calm     93 % 0 mm 16.0 W/m2 BKN
08:53 -15.8 °C -16.4 °C 34462.7 hPa Calm     93 % 0 mm 16.0 W/m2 BKN
08:58 -15.8 °C -16.3 °C 34462.7 hPa Calm     93 % 0 mm 25.0 W/m2 BKN
09:03 -15.7 °C -16.3 °C 34462.7 hPa Calm     93 % 0 mm 32.0 W/m2 BKN
09:08 -15.7 °C -16.3 °C 34462.7 hPa Calm     93 % 0 mm 35.0 W/m2 BKN
09:13 -15.7 °C -16.3 °C 34462.7 hPa Calm     93 % 0 mm 40.0 W/m2 BKN
09:18 -15.6 °C -16.2 °C 34462.7 hPa Calm     93 % 0 mm 51.0 W/m2 BKN
09:23 -15.6 °C -16.2 °C 34462.7 hPa Calm     93 % 0 mm 65.0 W/m2 SCT
09:28 -15.6 °C -16.2 °C 34462.7 hPa Calm     93 % 0 mm 72.0 W/m2 SCT
09:33 -15.5 °C -16.1 °C 34462.7 hPa Calm     93 % 0 mm 70.0 W/m2 FEW
09:38 -15.4 °C -16.1 °C 34462.7 hPa Calm     93 % 0 mm 46.0 W/m2 FEW
09:43 -15.4 °C -16 °C 34462.7 hPa Calm     93 % 0 mm 62.0 W/m2 SCT
09:48 -15.4 °C -15.9 °C 34462.7 hPa Calm     93 % 0 mm 65.0 W/m2 SCT
09:53 -15.3 °C -15.9 °C 34462.7 hPa Calm     93 % 0 mm 51.0 W/m2 SCT
09:58 -15.2 °C -15.8 °C 34462.7 hPa Calm     93 % 0 mm 54.0 W/m2 SCT
10:03 -15.2 °C -15.8 °C 34462.7 hPa Calm     93 % 0 mm 70.0 W/m2 SCT
10:08 -15.1 °C -15.7 °C 34462.7 hPa Calm     93 % 0 mm 104.0 W/m2 FEW
10:13 -15.1 °C -15.7 °C 34462.7 hPa Calm     93 % 0 mm 127.0 W/m2 CLR
10:18 -15 °C -15.6 °C 34462.7 hPa Calm     93 % 0 mm 142.0 W/m2 CLR
10:23 -14.9 °C -15.5 °C 34452.6 hPa Calm     93 % 0 mm 144.0 W/m2 CLR
10:28 -14.8 °C -15.4 °C 34452.6 hPa Calm     93 % 0 mm 142.0 W/m2 CLR
10:33 -14.8 °C -15.4 °C 34452.6 hPa Calm     93 % 0 mm 86.0 W/m2 CLR
10:38 -14.8 °C -15.4 °C 34452.6 hPa Calm     93 % 0 mm 54.0 W/m2 FEW
10:43 -14.8 °C -15.4 °C 34462.7 hPa Calm     92 % 0 mm 70.0 W/m2 SCT
10:48 -14.7 °C -15.4 °C 34462.7 hPa Calm     92 % 0 mm 123.0 W/m2 FEW
10:53 -14.7 °C -15.3 °C 34462.7 hPa Calm     92 % 0 mm 104.0 W/m2 CLR
10:58 -14.6 °C -15.3 °C 34462.7 hPa Calm     92 % 0 mm 160.0 W/m2 CLR
11:03 -14.6 °C -15.2 °C 34462.7 hPa Calm     92 % 0 mm 174.0 W/m2 CLR
11:08 -14.4 °C -15.1 °C 34462.7 hPa Calm     92 % 0 mm 121.0 W/m2 CLR
11:13 -14.3 °C -14.9 °C 34462.7 hPa Calm     92 % 0 mm 49.0 W/m2 CLR
11:18 -14.3 °C -15.1 °C 34462.7 hPa Calm     91 % 0 mm 39.0 W/m2 SCT
11:23 -14.3 °C -15.1 °C 34462.7 hPa Calm     91 % 0 mm 35.0 W/m2 BKN
11:28 -14.2 °C -15 °C 34452.6 hPa Calm     91 % 0 mm 40.0 W/m2 BKN
11:33 -14.2 °C -15.1 °C 34452.6 hPa Calm     90 % 0 mm 44.0 W/m2 BKN
11:38 -14.2 °C -15.1 °C 34452.6 hPa Calm     90 % 0 mm 44.0 W/m2 BKN
11:43 -14.2 °C -15.1 °C 34452.6 hPa Calm     90 % 0 mm 46.0 W/m2 BKN
11:48 -14.2 °C -15.1 °C 34452.6 hPa Calm     90 % 0 mm 49.0 W/m2 SCT
11:53 -14.2 °C -15.1 °C 34452.6 hPa Calm     90 % 0 mm 58.0 W/m2 SCT
11:58 -14.3 °C -15.1 °C 34452.6 hPa Calm     90 % 0 mm 53.0 W/m2 SCT
12:03 -14.2 °C -15.2 °C 34442.4 hPa Calm     89 % 0 mm 139.0 W/m2 FEW
12:08 -14.2 °C -15.1 °C 34442.4 hPa Calm     89 % 0 mm 172.0 W/m2 CLR
12:13 -14.1 °C -15.1 °C 34442.4 hPa Calm     89 % 0 mm 102.0 W/m2 CLR
12:18 -14.1 °C -15.1 °C 34452.6 hPa Calm     88 % 0 mm 137.0 W/m2 CLR
12:23 -14.1 °C -15.1 °C 34442.4 hPa Calm     88 % 0 mm 169.0 W/m2 CLR
12:28 -14 °C -15 °C 34442.4 hPa Calm     88 % 0 mm 137.0 W/m2 CLR
12:33 -13.9 °C -15.1 °C 34442.4 hPa Calm     87 % 0 mm 113.0 W/m2 CLR
12:38 -13.8 °C -14.9 °C 34428.8 hPa Calm     87 % 0 mm 102.0 W/m2 CLR
12:43 -13.8 °C -14.9 °C 34428.8 hPa Calm     87 % 0 mm 111.0 W/m2 CLR
16:00 -13.5 °C -14.7 °C 34347.6 hPa Calm     86 % 0 mm 62.0 W/m2 SCT
16:05 -13.5 °C -14.7 °C 34347.6 hPa Calm     86 % 0 mm 100.0 W/m2 FEW
16:10 -13.4 °C -14.7 °C 34347.6 hPa Calm     86 % 0 mm 111.0 W/m2 CLR
16:15 -13.4 °C -14.7 °C 34337.4 hPa Calm     86 % 0 mm 84.0 W/m2 CLR
16:20 -13.4 °C -14.7 °C 34337.4 hPa Calm     85 % 0 mm 81.0 W/m2 CLR
16:25 -13.3 °C -14.7 °C 34337.4 hPa Calm     85 % 0 mm 84.0 W/m2 FEW
16:30 -13.3 °C -14.6 °C 34337.4 hPa Calm     85 % 0 mm 60.0 W/m2 FEW
16:35 -13.3 °C -14.6 °C 34337.4 hPa Calm     85 % 0 mm 77.0 W/m2 FEW
16:40 -13.2 °C -14.6 °C 34327.3 hPa Calm     85 % 0 mm 90.0 W/m2 FEW
16:45 -13.2 °C -14.5 °C 34337.4 hPa Calm     85 % 0 mm 91.0 W/m2 CLR
16:50 -13.2 °C -14.5 °C 34327.3 hPa Calm     85 % 0 mm 93.0 W/m2 CLR
16:55 -13.1 °C -14.6 °C 34327.3 hPa Calm     84 % 0 mm 74.0 W/m2 CLR
17:00 -13.1 °C -14.5 °C 34313.7 hPa NNE 3.1 km/h   84 % 0 mm 90.0 W/m2 FEW
17:05 -13.1 °C -14.5 °C 34313.7 hPa Calm     84 % 0 mm 105.0 W/m2 CLR
17:10 -13.1 °C -14.5 °C 34313.7 hPa Calm     84 % 0 mm 86.0 W/m2 CLR
17:15 -13.1 °C -14.5 °C 34313.7 hPa Calm     84 % 0 mm 70.0 W/m2 CLR
17:20 -13.1 °C -14.5 °C 34313.7 hPa Calm     84 % 0 mm 63.0 W/m2 FEW
17:25 -13.1 °C -14.5 °C 34313.7 hPa Calm     84 % 0 mm 77.0 W/m2 SCT
17:30 -13.1 °C -14.4 °C 34313.7 hPa Calm     85 % 0 mm 72.0 W/m2 FEW
17:35 -13 °C -14.4 °C 34303.6 hPa Calm     84 % 0 mm 65.0 W/m2 SCT
17:40 -13 °C -14.4 °C 34303.6 hPa Calm     84 % 0 mm 56.0 W/m2 SCT
17:45 -13.1 °C -14.4 °C 34303.6 hPa Calm     85 % 0 mm 44.0 W/m2 SCT
17:50 -13.1 °C -14.4 °C 34303.6 hPa Calm     85 % 0 mm 42.0 W/m2 BKN
17:56 -13.2 °C -14.5 °C 34303.6 hPa Calm     85 % 0 mm 39.0 W/m2 BKN
18:01 -13.2 °C -14.5 °C 34303.6 hPa Calm     85 % 0 mm 33.0 W/m2 BKN
18:06 -13.2 °C -14.5 °C 34303.6 hPa Calm     85 % 0 mm 26.0 W/m2 BKN
18:11 -13.2 °C -14.4 °C 34303.6 hPa Calm     86 % 0 mm 21.0 W/m2 BKN
18:16 -13.2 °C -14.4 °C 34303.6 hPa Calm     86 % 0 mm 12.0 W/m2 BKN
18:21 -13.2 °C -14.5 °C 34313.7 hPa Calm     86 % 0 mm 5.0 W/m2 BKN
18:26 -13.3 °C -14.5 °C 34313.7 hPa Calm     86 % 0 mm 0.0 W/m2 OVC
18:31 -13.3 °C -14.4 °C 34313.7 hPa Calm     87 % 0 mm 0.0 W/m2 OVC
18:36 -13.3 °C -14.5 °C 34313.7 hPa Calm     87 % 0 mm 0.0 W/m2 OVC
18:41 -13.4 °C -14.5 °C 34327.3 hPa Calm     87 % 12.7 mm 0.0 W/m2 RA
18:46 -13.4 °C -14.4 °C 34313.7 hPa Calm     88 % 12.7 mm 0.0 W/m2 RA
18:51 -13.4 °C -14.4 °C 34313.7 hPa Calm     88 % 20.32 mm 0.0 W/m2 RA
18:56 -13.4 °C -14.4 °C 34313.7 hPa Calm     89 % 20.32 mm 0.0 W/m2 CLR
19:01 -13.4 °C -14.4 °C 34313.7 hPa Calm     89 % 20.32 mm 0.0 W/m2 CLR
19:06 -13.5 °C -14.3 °C 34313.7 hPa Calm     90 % 25.4 mm 0.0 W/m2 RA
19:11 -13.6 °C -14.4 °C 34313.7 hPa Calm     90 % 25.4 mm 0.0 W/m2
19:16 -13.6 °C -14.4 °C 34313.7 hPa Calm     90 % 25.4 mm 0.0 W/m2 CLR
19:21 -13.6 °C -14.4 °C 34313.7 hPa Calm     91 % 33.02 mm 0.0 W/m2 RA
19:26 -13.7 °C -14.4 °C 34313.7 hPa NNE 10.3 km/h 10.3 km/h 91 % 33.02 mm 0.0 W/m2 CLR
19:31 -13.7 °C -14.5 °C 34313.7 hPa Calm     91 % 33.02 mm 0.0 W/m2 CLR
19:36 -13.7 °C -14.4 °C 34313.7 hPa NNE 9 km/h 9 km/h 92 % 33.02 mm 0.0 W/m2 CLR
19:41 -13.7 °C -14.4 °C 34313.7 hPa North 6 km/h   92 % 20.32 mm 0.0 W/m2 CLR
19:46 -13.7 °C -14.3 °C 34313.7 hPa Calm     92 % 12.7 mm 0.0 W/m2 CLR
19:51 -13.7 °C -14.3 °C 34313.7 hPa Calm     92 % 12.7 mm 0.0 W/m2 CLR
19:56 -13.7 °C -14.3 °C 34303.6 hPa Calm     92 % 12.7 mm 0.0 W/m2 CLR
20:01 -13.7 °C -14.3 °C 34303.6 hPa Calm     92 % 12.7 mm 0.0 W/m2 CLR
20:06 -13.7 °C -14.3 °C 34303.6 hPa Calm     92 % 7.62 mm 0.0 W/m2 CLR
20:11 -13.7 °C -14.4 °C 34303.6 hPa Calm     92 % 7.62 mm 0.0 W/m2 CLR
20:16 -13.7 °C -14.4 °C 34303.6 hPa Calm     92 % 7.62 mm 0.0 W/m2 CLR
20:21 -13.7 °C -14.3 °C 34303.6 hPa Calm     93 % 0 mm 0.0 W/m2 CLR
20:26 -13.7 °C -14.3 °C 34303.6 hPa Calm     93 % 0 mm 0.0 W/m2 CLR
20:31 -13.7 °C -14.3 °C 34303.6 hPa North 9 km/h 9 km/h 93 % 0 mm 0.0 W/m2 CLR
20:36 -13.7 °C -14.3 °C 34303.6 hPa Calm     93 % 0 mm 0.0 W/m2 CLR
20:41 -13.7 °C -14.3 °C 34303.6 hPa Calm     93 % 0 mm 0.0 W/m2 CLR
20:46 -13.8 °C -14.4 °C 34303.6 hPa Calm     93 % 0 mm 0.0 W/m2 CLR
20:51 -13.8 °C -14.4 °C 34293.4 hPa Calm     93 % 0 mm 0.0 W/m2 CLR
20:56 -13.8 °C -14.4 °C 34293.4 hPa Calm     93 % 0 mm 0.0 W/m2 CLR
21:01 -13.7 °C -14.3 °C 34293.4 hPa Calm     93 % 0 mm 0.0 W/m2 CLR
21:06 -13.8 °C -14.4 °C 34303.6 hPa Calm     93 % 0 mm 0.0 W/m2 CLR
21:11 -13.8 °C -14.4 °C 34293.4 hPa Calm     93 % 0 mm 0.0 W/m2 CLR
21:16 -13.5 °C -14.1 °C 34293.4 hPa Calm     93 % 0 mm 0.0 W/m2 CLR
21:21 -13.3 °C -13.8 °C 34279.9 hPa ENE 9 km/h 9 km/h 94 % 0 mm 0.0 W/m2 CLR
21:26 -13 °C -13.5 °C 34279.9 hPa ENE 15 km/h 15 km/h 94 % 0 mm 0.0 W/m2 CLR
21:31 -12.9 °C -13.4 °C 34279.9 hPa East 9 km/h 9 km/h 94 % 0 mm 0.0 W/m2 CLR
21:36 -13.2 °C -13.8 °C 34279.9 hPa Calm   0.8 km/h 93 % 0 mm 0.0 W/m2 CLR
21:41 -13 °C -13.6 °C 34293.4 hPa ESE 10.3 km/h 10.3 km/h 93 % 0 mm 0.0 W/m2 CLR
21:46 -12.7 °C -13.3 °C 34293.4 hPa East 11.9 km/h 11.9 km/h 93 % 7.62 mm 0.0 W/m2 RA
21:51 -12.6 °C -13.2 °C 34293.4 hPa East 11.9 km/h 11.9 km/h 93 % 7.62 mm 0.0 W/m2 CLR
21:56 -12.6 °C -13.1 °C 34293.4 hPa East 9 km/h 9 km/h 93 % 7.62 mm 0.0 W/m2 CLR
22:01 -12.5 °C -13.1 °C 34293.4 hPa Calm     93 % 7.62 mm 0.0 W/m2 CLR
22:06 -12.5 °C -13.1 °C 34293.4 hPa Calm     93 % 7.62 mm 0.0 W/m2 CLR
22:11 -12.6 °C -13.2 °C 34279.9 hPa Calm     92 % 7.62 mm 0.0 W/m2 CLR
22:16 -12.6 °C -13.3 °C 34279.9 hPa Calm     92 % 7.62 mm 0.0 W/m2 CLR
22:21 -12.6 °C -13.2 °C 34279.9 hPa Calm     93 % 7.62 mm 0.0 W/m2 CLR
22:26 -12.6 °C -13.1 °C 34279.9 hPa Calm     93 % 7.62 mm 0.0 W/m2 CLR
22:31 -12.5 °C -13.2 °C 34279.9 hPa Calm     92 % 7.62 mm 0.0 W/m2 CLR
22:36 -12.6 °C -13.2 °C 34279.9 hPa Calm     92 % 7.62 mm 0.0 W/m2 CLR
22:41 -12.5 °C -13.2 °C 34279.9 hPa Calm     92 % 7.62 mm 0.0 W/m2 CLR
22:46 -12.6 °C -13.2 °C 34279.9 hPa Calm     92 % 0 mm 0.0 W/m2 CLR
22:51 -12.6 °C -13.3 °C 34279.9 hPa Calm     92 % 0 mm 0.0 W/m2 CLR
22:56 -12.6 °C -13.3 °C 34279.9 hPa Calm     92 % 0 mm 0.0 W/m2 CLR
23:01 -12.6 °C -13.3 °C 34279.9 hPa Calm     92 % 0 mm 0.0 W/m2 CLR
23:06 -12.6 °C -13.3 °C 34279.9 hPa ENE 7.7 km/h 7.7 km/h 92 % 0 mm 0.0 W/m2 CLR
23:11 -12.6 °C -13.2 °C 34279.9 hPa ENE 9 km/h   92 % 0 mm 0.0 W/m2 CLR
23:16 -12.6 °C -13.2 °C 34279.9 hPa Calm     92 % 0 mm 0.0 W/m2 CLR
23:21 -12.5 °C -13.2 °C 34279.9 hPa ENE 9 km/h   92 % 0 mm 0.0 W/m2 CLR
23:26 -12.4 °C -13.1 °C 34269.7 hPa East 11.9 km/h 11.9 km/h 92 % 0 mm 0.0 W/m2 CLR
23:31 -12.4 °C -13.2 °C 34269.7 hPa East 9 km/h 9 km/h 91 % 0 mm 0.0 W/m2 CLR
23:36 -12.4 °C -13.2 °C 34269.7 hPa East 10.3 km/h 10.3 km/h 91 % 0 mm 0.0 W/m2 CLR
23:41 -12.4 °C -13.2 °C 34269.7 hPa East 20.9 km/h 20.9 km/h 91 % 0 mm 0.0 W/m2 CLR
23:46 -12.4 °C -13.2 °C 34256.2 hPa East 9 km/h 9 km/h 91 % 0 mm 0.0 W/m2 CLR
23:51 -12.4 °C -13.2 °C 34269.7 hPa East 15.6 km/h 15.6 km/h 91 % 0 mm 0.0 W/m2 CLR
23:56 -12.4 °C -13.2 °C 34256.2 hPa ESE 29.8 km/h 29.8 km/h 91 % 0 mm 0.0 W/m2 CLR
Lo Temps de Massalio
Compliments of Weather Underground - 1 mb